sensor_id;sensor_type;location;lat;lon;timestamp;temperature;humidity
25024;DHT22;13033;50.936;5.334;2023-06-22T00:01:05;23.80;99.90
25024;DHT22;13033;50.936;5.334;2023-06-22T00:03:31;23.70;99.90
25024;DHT22;13033;50.936;5.334;2023-06-22T00:05:57;23.50;99.90
25024;DHT22;13033;50.936;5.334;2023-06-22T00:08:22;23.50;99.90
25024;DHT22;13033;50.936;5.334;2023-06-22T00:10:48;23.40;99.90
25024;DHT22;13033;50.936;5.334;2023-06-22T00:13:14;23.40;99.90
25024;DHT22;13033;50.936;5.334;2023-06-22T00:15:42;23.30;99.90
25024;DHT22;13033;50.936;5.334;2023-06-22T00:18:09;23.20;99.90
25024;DHT22;13033;50.936;5.334;2023-06-22T00:20:35;23.20;99.90
25024;DHT22;13033;50.936;5.334;2023-06-22T00:23:03;23.10;99.90
25024;DHT22;13033;50.936;5.334;2023-06-22T00:25:35;23.20;99.90
25024;DHT22;13033;50.936;5.334;2023-06-22T00:28:01;23.20;99.90
25024;DHT22;13033;50.936;5.334;2023-06-22T00:30:27;23.20;99.90
25024;DHT22;13033;50.936;5.334;2023-06-22T00:32:53;23.30;99.90
25024;DHT22;13033;50.936;5.334;2023-06-22T00:35:19;23.30;99.90
25024;DHT22;13033;50.936;5.334;2023-06-22T00:37:45;23.40;99.90
25024;DHT22;13033;50.936;5.334;2023-06-22T00:40:10;23.40;99.90
25024;DHT22;13033;50.936;5.334;2023-06-22T00:42:38;23.40;99.90
25024;DHT22;13033;50.936;5.334;2023-06-22T00:45:05;23.40;99.90
25024;DHT22;13033;50.936;5.334;2023-06-22T00:47:30;23.10;99.90
25024;DHT22;13033;50.936;5.334;2023-06-22T00:49:56;23.00;99.90
25024;DHT22;13033;50.936;5.334;2023-06-22T00:52:23;23.10;99.90
25024;DHT22;13033;50.936;5.334;2023-06-22T00:54:52;23.10;99.90
25024;DHT22;13033;50.936;5.334;2023-06-22T00:57:19;23.20;99.90
25024;DHT22;13033;50.936;5.334;2023-06-22T00:59:47;23.30;99.90
25024;DHT22;13033;50.936;5.334;2023-06-22T01:02:14;23.30;99.90
25024;DHT22;13033;50.936;5.334;2023-06-22T01:04:41;23.30;99.90
25024;DHT22;13033;50.936;5.334;2023-06-22T01:13:03;23.50;99.90
25024;DHT22;13033;50.936;5.334;2023-06-22T01:15:36;23.40;99.90
25024;DHT22;13033;50.936;5.334;2023-06-22T01:18:04;23.30;99.90
25024;DHT22;13033;50.936;5.334;2023-06-22T01:20:32;23.40;99.90
25024;DHT22;13033;50.936;5.334;2023-06-22T01:25:33;23.20;99.90
25024;DHT22;13033;50.936;5.334;2023-06-22T01:28:53;23.20;99.90
25024;DHT22;13033;50.936;5.334;2023-06-22T01:30:59;23.20;99.90
25024;DHT22;13033;50.936;5.334;2023-06-22T01:33:34;23.20;99.90
25024;DHT22;13033;50.936;5.334;2023-06-22T01:36:01;23.30;99.90
25024;DHT22;13033;50.936;5.334;2023-06-22T01:38:29;23.20;99.90
25024;DHT22;13033;50.936;5.334;2023-06-22T01:40:56;23.20;99.90
25024;DHT22;13033;50.936;5.334;2023-06-22T01:43:25;23.20;99.90
25024;DHT22;13033;50.936;5.334;2023-06-22T01:45:52;23.10;99.90
25024;DHT22;13033;50.936;5.334;2023-06-22T01:48:19;23.00;99.90
25024;DHT22;13033;50.936;5.334;2023-06-22T01:50:45;23.10;99.90
25024;DHT22;13033;50.936;5.334;2023-06-22T01:53:11;23.00;99.90
25024;DHT22;13033;50.936;5.334;2023-06-22T01:55:36;22.90;99.90
25024;DHT22;13033;50.936;5.334;2023-06-22T01:58:02;22.90;99.90
25024;DHT22;13033;50.936;5.334;2023-06-22T02:00:32;22.80;99.90
25024;DHT22;13033;50.936;5.334;2023-06-22T02:03:08;22.70;99.90
25024;DHT22;13033;50.936;5.334;2023-06-22T02:05:38;22.60;99.90
25024;DHT22;13033;50.936;5.334;2023-06-22T02:08:13;22.70;99.90
25024;DHT22;13033;50.936;5.334;2023-06-22T02:10:43;22.60;99.90
25024;DHT22;13033;50.936;5.334;2023-06-22T02:13:11;22.70;99.90
25024;DHT22;13033;50.936;5.334;2023-06-22T02:15:38;22.60;99.90
25024;DHT22;13033;50.936;5.334;2023-06-22T02:18:04;22.70;99.90
25024;DHT22;13033;50.936;5.334;2023-06-22T02:20:30;22.70;99.90
25024;DHT22;13033;50.936;5.334;2023-06-22T02:22:56;22.70;99.90
25024;DHT22;13033;50.936;5.334;2023-06-22T02:25:21;22.60;99.90
25024;DHT22;13033;50.936;5.334;2023-06-22T02:27:47;22.70;99.90
25024;DHT22;13033;50.936;5.334;2023-06-22T02:30:13;22.50;99.90
25024;DHT22;13033;50.936;5.334;2023-06-22T02:32:41;22.50;99.90
25024;DHT22;13033;50.936;5.334;2023-06-22T02:35:08;22.60;99.90
25024;DHT22;13033;50.936;5.334;2023-06-22T02:37:35;22.60;99.90
25024;DHT22;13033;50.936;5.334;2023-06-22T02:40:05;22.40;99.90
25024;DHT22;13033;50.936;5.334;2023-06-22T02:42:32;22.30;99.90
25024;DHT22;13033;50.936;5.334;2023-06-22T02:44:58;22.50;99.90
25024;DHT22;13033;50.936;5.334;2023-06-22T02:47:24;22.50;99.90
25024;DHT22;13033;50.936;5.334;2023-06-22T02:49:49;22.40;99.90
25024;DHT22;13033;50.936;5.334;2023-06-22T02:52:15;22.30;99.90
25024;DHT22;13033;50.936;5.334;2023-06-22T02:54:40;22.30;99.90
25024;DHT22;13033;50.936;5.334;2023-06-22T02:57:06;22.10;2.40
25024;DHT22;13033;50.936;5.334;2023-06-22T02:59:32;21.90;13.30
25024;DHT22;13033;50.936;5.334;2023-06-22T03:01:57;21.90;15.10
25024;DHT22;13033;50.936;5.334;2023-06-22T03:04:23;21.90;18.00
25024;DHT22;13033;50.936;5.334;2023-06-22T03:06:48;21.90;17.20
25024;DHT22;13033;50.936;5.334;2023-06-22T03:09:16;21.70;24.10
25024;DHT22;13033;50.936;5.334;2023-06-22T03:11:42;21.60;29.20
25024;DHT22;13033;50.936;5.334;2023-06-22T03:14:08;21.50;34.20
25024;DHT22;13033;50.936;5.334;2023-06-22T03:16:34;21.50;37.40
25024;DHT22;13033;50.936;5.334;2023-06-22T03:18:59;21.60;35.50
25024;DHT22;13033;50.936;5.334;2023-06-22T03:21:28;21.60;36.10
25024;DHT22;13033;50.936;5.334;2023-06-22T03:23:54;21.60;38.40
25024;DHT22;13033;50.936;5.334;2023-06-22T03:26:20;21.60;41.30
25024;DHT22;13033;50.936;5.334;2023-06-22T03:28:46;21.70;39.10
25024;DHT22;13033;50.936;5.334;2023-06-22T03:31:12;21.70;41.00
25024;DHT22;13033;50.936;5.334;2023-06-22T03:33:37;21.60;42.80
25024;DHT22;13033;50.936;5.334;2023-06-22T03:36:03;21.60;44.20
25024;DHT22;13033;50.936;5.334;2023-06-22T03:38:29;21.70;45.10
25024;DHT22;13033;50.936;5.334;2023-06-22T03:40:55;21.70;43.90
25024;DHT22;13033;50.936;5.334;2023-06-22T03:43:20;21.70;45.40
25024;DHT22;13033;50.936;5.334;2023-06-22T03:45:46;21.60;48.80
25024;DHT22;13033;50.936;5.334;2023-06-22T03:48:12;21.70;47.70
25024;DHT22;13033;50.936;5.334;2023-06-22T03:50:38;21.90;44.50
25024;DHT22;13033;50.936;5.334;2023-06-22T03:53:04;21.90;41.80
25024;DHT22;13033;50.936;5.334;2023-06-22T03:55:29;22.00;38.60
25024;DHT22;13033;50.936;5.334;2023-06-22T03:57:55;22.00;41.10
25024;DHT22;13033;50.936;5.334;2023-06-22T04:00:23;21.90;46.00
25024;DHT22;13033;50.936;5.334;2023-06-22T04:02:49;22.00;43.50
25024;DHT22;13033;50.936;5.334;2023-06-22T04:05:15;22.30;36.30
25024;DHT22;13033;50.936;5.334;2023-06-22T04:07:42;22.40;30.40
25024;DHT22;13033;50.936;5.334;2023-06-22T04:10:08;22.20;35.80
25024;DHT22;13033;50.936;5.334;2023-06-22T04:12:34;22.10;41.80
25024;DHT22;13033;50.936;5.334;2023-06-22T04:15:00;22.00;46.00
25024;DHT22;13033;50.936;5.334;2023-06-22T04:17:25;22.10;42.20
25024;DHT22;13033;50.936;5.334;2023-06-22T04:19:51;22.10;40.40
25024;DHT22;13033;50.936;5.334;2023-06-22T04:22:17;22.20;37.20
25024;DHT22;13033;50.936;5.334;2023-06-22T04:24:43;22.20;38.00
25024;DHT22;13033;50.936;5.334;2023-06-22T04:27:09;22.30;32.90
25024;DHT22;13033;50.936;5.334;2023-06-22T04:29:34;22.30;35.50
25024;DHT22;13033;50.936;5.334;2023-06-22T04:32:00;22.20;34.60
25024;DHT22;13033;50.936;5.334;2023-06-22T04:34:30;22.40;34.30
25024;DHT22;13033;50.936;5.334;2023-06-22T04:36:56;22.50;31.00
25024;DHT22;13033;50.936;5.334;2023-06-22T04:39:22;22.70;23.80
25024;DHT22;13033;50.936;5.334;2023-06-22T04:41:49;22.60;33.40
25024;DHT22;13033;50.936;5.334;2023-06-22T04:44:17;22.30;42.90
25024;DHT22;13033;50.936;5.334;2023-06-22T04:46:59;22.40;42.20
25024;DHT22;13033;50.936;5.334;2023-06-22T04:49:34;22.40;42.70
25024;DHT22;13033;50.936;5.334;2023-06-22T04:52:09;22.80;37.60
25024;DHT22;13033;50.936;5.334;2023-06-22T04:54:36;22.90;42.40
25024;DHT22;13033;50.936;5.334;2023-06-22T04:57:07;22.90;47.00
25024;DHT22;13033;50.936;5.334;2023-06-22T04:59:36;22.90;54.20
25024;DHT22;13033;50.936;5.334;2023-06-22T05:02:04;22.80;61.10
25024;DHT22;13033;50.936;5.334;2023-06-22T05:04:30;22.70;63.10
25024;DHT22;13033;50.936;5.334;2023-06-22T05:07:02;22.60;64.10
25024;DHT22;13033;50.936;5.334;2023-06-22T05:09:28;22.50;76.00
25024;DHT22;13033;50.936;5.334;2023-06-22T05:11:54;22.10;82.50
25024;DHT22;13033;50.936;5.334;2023-06-22T05:14:22;21.80;90.70
25024;DHT22;13033;50.936;5.334;2023-06-22T05:16:48;21.60;96.20
25024;DHT22;13033;50.936;5.334;2023-06-22T05:19:17;21.60;96.60
25024;DHT22;13033;50.936;5.334;2023-06-22T05:21:43;21.60;97.10
25024;DHT22;13033;50.936;5.334;2023-06-22T05:24:09;21.70;95.80
25024;DHT22;13033;50.936;5.334;2023-06-22T05:26:35;21.60;95.90
25024;DHT22;13033;50.936;5.334;2023-06-22T05:29:02;21.70;98.20
25024;DHT22;13033;50.936;5.334;2023-06-22T05:31:29;21.40;99.90
25024;DHT22;13033;50.936;5.334;2023-06-22T05:33:55;21.20;99.90
25024;DHT22;13033;50.936;5.334;2023-06-22T05:36:21;21.30;99.90
25024;DHT22;13033;50.936;5.334;2023-06-22T05:38:53;21.30;99.90
25024;DHT22;13033;50.936;5.334;2023-06-22T05:41:19;21.30;99.90
25024;DHT22;13033;50.936;5.334;2023-06-22T05:43:45;21.30;99.90
25024;DHT22;13033;50.936;5.334;2023-06-22T05:46:10;21.30;99.90
25024;DHT22;13033;50.936;5.334;2023-06-22T05:48:36;21.40;99.90
25024;DHT22;13033;50.936;5.334;2023-06-22T05:51:02;21.40;99.90
25024;DHT22;13033;50.936;5.334;2023-06-22T05:53:28;21.40;99.90
25024;DHT22;13033;50.936;5.334;2023-06-22T05:55:53;21.60;99.90
25024;DHT22;13033;50.936;5.334;2023-06-22T05:58:19;21.70;99.90
25024;DHT22;13033;50.936;5.334;2023-06-22T06:00:45;21.70;99.90
25024;DHT22;13033;50.936;5.334;2023-06-22T06:03:12;21.80;99.90
25024;DHT22;13033;50.936;5.334;2023-06-22T06:05:37;21.60;99.90
25024;DHT22;13033;50.936;5.334;2023-06-22T06:08:05;21.50;99.90
25024;DHT22;13033;50.936;5.334;2023-06-22T06:10:32;21.50;99.90
25024;DHT22;13033;50.936;5.334;2023-06-22T06:12:58;21.60;99.90
25024;DHT22;13033;50.936;5.334;2023-06-22T06:15:24;21.70;99.90
25024;DHT22;13033;50.936;5.334;2023-06-22T06:17:51;21.70;99.90
25024;DHT22;13033;50.936;5.334;2023-06-22T06:20:21;21.80;99.90
25024;DHT22;13033;50.936;5.334;2023-06-22T06:22:47;22.00;99.90
25024;DHT22;13033;50.936;5.334;2023-06-22T06:25:14;22.20;99.90
25024;DHT22;13033;50.936;5.334;2023-06-22T06:27:46;22.50;99.50
25024;DHT22;13033;50.936;5.334;2023-06-22T06:30:13;22.50;96.70
25024;DHT22;13033;50.936;5.334;2023-06-22T06:32:39;22.60;96.70
25024;DHT22;13033;50.936;5.334;2023-06-22T06:35:08;22.60;93.50
25024;DHT22;13033;50.936;5.334;2023-06-22T06:37:39;22.60;92.60
25024;DHT22;13033;50.936;5.334;2023-06-22T06:40:09;22.50;94.40
25024;DHT22;13033;50.936;5.334;2023-06-22T06:42:41;22.50;94.50
25024;DHT22;13033;50.936;5.334;2023-06-22T06:45:11;22.60;93.10
25024;DHT22;13033;50.936;5.334;2023-06-22T06:47:37;22.50;94.50
25024;DHT22;13033;50.936;5.334;2023-06-22T06:50:04;22.70;93.40
25024;DHT22;13033;50.936;5.334;2023-06-22T06:52:30;22.80;87.40
25024;DHT22;13033;50.936;5.334;2023-06-22T06:54:56;22.90;80.90
25024;DHT22;13033;50.936;5.334;2023-06-22T06:57:22;23.00;76.90
25024;DHT22;13033;50.936;5.334;2023-06-22T06:59:48;23.10;75.00
25024;DHT22;13033;50.936;5.334;2023-06-22T07:02:15;23.00;71.50
25024;DHT22;13033;50.936;5.334;2023-06-22T07:04:41;23.10;86.40
25024;DHT22;13033;50.936;5.334;2023-06-22T07:07:06;23.30;62.10
25024;DHT22;13033;50.936;5.334;2023-06-22T07:09:32;23.50;59.20
25024;DHT22;13033;50.936;5.334;2023-06-22T07:11:58;23.60;54.50
25024;DHT22;13033;50.936;5.334;2023-06-22T07:14:24;23.60;52.80
25024;DHT22;13033;50.936;5.334;2023-06-22T07:16:49;23.70;47.90
25024;DHT22;13033;50.936;5.334;2023-06-22T07:19:15;23.80;49.30
25024;DHT22;13033;50.936;5.334;2023-06-22T07:21:40;23.50;42.30
25024;DHT22;13033;50.936;5.334;2023-06-22T07:24:06;23.40;50.70
25024;DHT22;13033;50.936;5.334;2023-06-22T07:26:33;23.60;43.70
25024;DHT22;13033;50.936;5.334;2023-06-22T07:28:59;23.80;37.40
25024;DHT22;13033;50.936;5.334;2023-06-22T07:31:25;23.80;40.40
25024;DHT22;13033;50.936;5.334;2023-06-22T07:33:51;23.80;26.30
25024;DHT22;13033;50.936;5.334;2023-06-22T07:36:17;23.60;37.90
25024;DHT22;13033;50.936;5.334;2023-06-22T07:38:43;23.60;38.20
25024;DHT22;13033;50.936;5.334;2023-06-22T07:41:09;23.50;46.00
25024;DHT22;13033;50.936;5.334;2023-06-22T07:43:35;23.60;48.40
25024;DHT22;13033;50.936;5.334;2023-06-22T07:46:05;23.70;42.30
25024;DHT22;13033;50.936;5.334;2023-06-22T07:48:31;23.70;38.70
25024;DHT22;13033;50.936;5.334;2023-06-22T07:50:57;23.80;40.60
25024;DHT22;13033;50.936;5.334;2023-06-22T07:53:23;23.80;35.50
25024;DHT22;13033;50.936;5.334;2023-06-22T07:55:49;24.00;32.80
25024;DHT22;13033;50.936;5.334;2023-06-22T07:58:15;24.10;28.40
25024;DHT22;13033;50.936;5.334;2023-06-22T08:00:46;24.30;19.90
25024;DHT22;13033;50.936;5.334;2023-06-22T08:03:13;24.20;23.80
25024;DHT22;13033;50.936;5.334;2023-06-22T08:05:39;24.10;29.80
25024;DHT22;13033;50.936;5.334;2023-06-22T08:08:04;24.10;24.50
25024;DHT22;13033;50.936;5.334;2023-06-22T08:10:30;24.20;24.60
25024;DHT22;13033;50.936;5.334;2023-06-22T08:12:56;24.40;19.80
25024;DHT22;13033;50.936;5.334;2023-06-22T08:15:21;24.60;14.70
25024;DHT22;13033;50.936;5.334;2023-06-22T08:17:47;24.80;7.60
25024;DHT22;13033;50.936;5.334;2023-06-22T08:20:13;24.90;2.20
25024;DHT22;13033;50.936;5.334;2023-06-22T08:22:42;24.90;1.00
25024;DHT22;13033;50.936;5.334;2023-06-22T08:25:08;25.20;1.00
25024;DHT22;13033;50.936;5.334;2023-06-22T08:27:34;25.50;1.00
25024;DHT22;13033;50.936;5.334;2023-06-22T08:30:01;25.80;1.00
25024;DHT22;13033;50.936;5.334;2023-06-22T08:32:28;26.00;1.00
25024;DHT22;13033;50.936;5.334;2023-06-22T08:34:57;26.00;1.00
25024;DHT22;13033;50.936;5.334;2023-06-22T08:37:23;26.10;1.00
25024;DHT22;13033;50.936;5.334;2023-06-22T08:39:56;26.30;1.00
25024;DHT22;13033;50.936;5.334;2023-06-22T08:42:28;26.30;1.00
25024;DHT22;13033;50.936;5.334;2023-06-22T08:44:54;26.10;1.00
25024;DHT22;13033;50.936;5.334;2023-06-22T08:47:19;26.20;1.00
25024;DHT22;13033;50.936;5.334;2023-06-22T08:49:45;26.00;1.00
25024;DHT22;13033;50.936;5.334;2023-06-22T08:52:11;26.20;1.00
25024;DHT22;13033;50.936;5.334;2023-06-22T08:54:37;26.00;1.00
25024;DHT22;13033;50.936;5.334;2023-06-22T08:57:02;26.00;1.00
25024;DHT22;13033;50.936;5.334;2023-06-22T08:59:28;25.80;1.00
25024;DHT22;13033;50.936;5.334;2023-06-22T09:01:54;25.60;1.00
25024;DHT22;13033;50.936;5.334;2023-06-22T09:04:19;25.60;1.00
25024;DHT22;13033;50.936;5.334;2023-06-22T09:06:47;25.50;1.00
25024;DHT22;13033;50.936;5.334;2023-06-22T09:09:15;25.30;1.00
25024;DHT22;13033;50.936;5.334;2023-06-22T09:11:41;25.10;1.00
25024;DHT22;13033;50.936;5.334;2023-06-22T09:14:07;25.30;1.00
25024;DHT22;13033;50.936;5.334;2023-06-22T09:16:33;25.50;1.00
25024;DHT22;13033;50.936;5.334;2023-06-22T09:18:59;25.50;1.00
25024;DHT22;13033;50.936;5.334;2023-06-22T09:21:25;25.50;1.00
25024;DHT22;13033;50.936;5.334;2023-06-22T09:23:51;25.40;1.00
25024;DHT22;13033;50.936;5.334;2023-06-22T09:26:20;25.20;1.00
25024;DHT22;13033;50.936;5.334;2023-06-22T09:28:46;25.30;1.00
25024;DHT22;13033;50.936;5.334;2023-06-22T09:31:12;25.50;1.00
25024;DHT22;13033;50.936;5.334;2023-06-22T09:33:40;25.60;1.00
25024;DHT22;13033;50.936;5.334;2023-06-22T09:36:06;25.80;1.00
25024;DHT22;13033;50.936;5.334;2023-06-22T09:38:36;25.90;1.00
25024;DHT22;13033;50.936;5.334;2023-06-22T09:41:01;25.70;1.00
25024;DHT22;13033;50.936;5.334;2023-06-22T09:43:27;25.50;1.00
25024;DHT22;13033;50.936;5.334;2023-06-22T09:45:53;25.40;1.00
25024;DHT22;13033;50.936;5.334;2023-06-22T09:48:19;25.40;1.00
25024;DHT22;13033;50.936;5.334;2023-06-22T09:50:45;25.30;1.00
25024;DHT22;13033;50.936;5.334;2023-06-22T09:53:11;25.40;1.00
25024;DHT22;13033;50.936;5.334;2023-06-22T09:55:37;25.50;1.00
25024;DHT22;13033;50.936;5.334;2023-06-22T09:58:02;25.30;10.30
25024;DHT22;13033;50.936;5.334;2023-06-22T10:00:28;25.00;24.70
25024;DHT22;13033;50.936;5.334;2023-06-22T10:02:53;24.70;49.40
25024;DHT22;13033;50.936;5.334;2023-06-22T10:05:21;24.60;56.40
25024;DHT22;13033;50.936;5.334;2023-06-22T10:07:47;24.40;61.70
25024;DHT22;13033;50.936;5.334;2023-06-22T10:10:13;24.40;74.70
25024;DHT22;13033;50.936;5.334;2023-06-22T10:12:47;24.40;79.30
25024;DHT22;13033;50.936;5.334;2023-06-22T10:15:13;24.50;76.80
25024;DHT22;13033;50.936;5.334;2023-06-22T10:17:39;24.30;78.00
25024;DHT22;13033;50.936;5.334;2023-06-22T10:20:06;24.10;90.30
25024;DHT22;13033;50.936;5.334;2023-06-22T10:22:43;23.90;96.60
25024;DHT22;13033;50.936;5.334;2023-06-22T10:25:10;23.70;98.00
25024;DHT22;13033;50.936;5.334;2023-06-22T10:27:36;23.80;99.90
25024;DHT22;13033;50.936;5.334;2023-06-22T10:30:02;23.50;99.90
25024;DHT22;13033;50.936;5.334;2023-06-22T10:32:28;23.40;99.90
25024;DHT22;13033;50.936;5.334;2023-06-22T10:34:54;23.10;99.90
25024;DHT22;13033;50.936;5.334;2023-06-22T10:37:20;22.90;99.90
25024;DHT22;13033;50.936;5.334;2023-06-22T10:39:45;22.60;99.90
25024;DHT22;13033;50.936;5.334;2023-06-22T10:42:12;22.40;99.90
25024;DHT22;13033;50.936;5.334;2023-06-22T10:44:37;22.20;99.90
25024;DHT22;13033;50.936;5.334;2023-06-22T10:47:04;22.10;99.90
25024;DHT22;13033;50.936;5.334;2023-06-22T10:49:30;22.20;99.90
25024;DHT22;13033;50.936;5.334;2023-06-22T10:51:56;22.30;99.90
25024;DHT22;13033;50.936;5.334;2023-06-22T10:54:21;22.50;99.90
25024;DHT22;13033;50.936;5.334;2023-06-22T10:56:47;22.40;99.90
25024;DHT22;13033;50.936;5.334;2023-06-22T10:59:12;22.30;99.90
25024;DHT22;13033;50.936;5.334;2023-06-22T11:01:38;22.40;99.90
25024;DHT22;13033;50.936;5.334;2023-06-22T11:04:04;22.30;99.90
25024;DHT22;13033;50.936;5.334;2023-06-22T11:06:30;22.30;99.90
25024;DHT22;13033;50.936;5.334;2023-06-22T11:08:55;22.30;99.90
25024;DHT22;13033;50.936;5.334;2023-06-22T11:11:21;22.30;99.90
25024;DHT22;13033;50.936;5.334;2023-06-22T11:13:46;22.20;99.90
25024;DHT22;13033;50.936;5.334;2023-06-22T11:16:12;22.00;99.90
25024;DHT22;13033;50.936;5.334;2023-06-22T11:18:38;22.00;99.90
25024;DHT22;13033;50.936;5.334;2023-06-22T11:21:03;22.00;99.90
25024;DHT22;13033;50.936;5.334;2023-06-22T11:23:29;22.10;99.90
25024;DHT22;13033;50.936;5.334;2023-06-22T11:25:55;22.20;99.90
25024;DHT22;13033;50.936;5.334;2023-06-22T11:28:21;22.10;99.90
25024;DHT22;13033;50.936;5.334;2023-06-22T11:30:46;22.10;99.90
25024;DHT22;13033;50.936;5.334;2023-06-22T11:33:12;22.40;99.90
25024;DHT22;13033;50.936;5.334;2023-06-22T11:35:38;22.50;99.90
25024;DHT22;13033;50.936;5.334;2023-06-22T11:38:03;22.80;99.90
25024;DHT22;13033;50.936;5.334;2023-06-22T11:40:30;23.10;99.90
25024;DHT22;13033;50.936;5.334;2023-06-22T11:42:56;23.00;99.90
25024;DHT22;13033;50.936;5.334;2023-06-22T11:45:22;22.90;99.90
25024;DHT22;13033;50.936;5.334;2023-06-22T11:47:48;22.90;99.90
25024;DHT22;13033;50.936;5.334;2023-06-22T11:50:13;22.80;99.90
25024;DHT22;13033;50.936;5.334;2023-06-22T11:52:39;22.60;99.90
25024;DHT22;13033;50.936;5.334;2023-06-22T11:55:05;22.50;99.90
25024;DHT22;13033;50.936;5.334;2023-06-22T11:57:52;22.40;99.90
25024;DHT22;13033;50.936;5.334;2023-06-22T12:00:18;22.60;99.90
25024;DHT22;13033;50.936;5.334;2023-06-22T12:02:44;22.60;99.90
25024;DHT22;13033;50.936;5.334;2023-06-22T12:05:13;22.50;99.90
25024;DHT22;13033;50.936;5.334;2023-06-22T12:07:38;22.30;99.90
25024;DHT22;13033;50.936;5.334;2023-06-22T12:10:05;22.00;99.90
25024;DHT22;13033;50.936;5.334;2023-06-22T12:12:30;21.90;99.90
25024;DHT22;13033;50.936;5.334;2023-06-22T12:14:56;21.60;99.90
25024;DHT22;13033;50.936;5.334;2023-06-22T12:17:22;21.60;99.90
25024;DHT22;13033;50.936;5.334;2023-06-22T12:19:47;21.50;99.90
25024;DHT22;13033;50.936;5.334;2023-06-22T12:22:13;21.40;99.90
25024;DHT22;13033;50.936;5.334;2023-06-22T12:24:38;21.40;99.90
25024;DHT22;13033;50.936;5.334;2023-06-22T12:27:04;21.50;99.90
25024;DHT22;13033;50.936;5.334;2023-06-22T12:29:30;21.40;99.90
25024;DHT22;13033;50.936;5.334;2023-06-22T12:31:56;21.30;99.90
25024;DHT22;13033;50.936;5.334;2023-06-22T12:34:22;21.30;99.90
25024;DHT22;13033;50.936;5.334;2023-06-22T12:36:47;21.30;99.90
25024;DHT22;13033;50.936;5.334;2023-06-22T12:39:14;21.20;99.90
25024;DHT22;13033;50.936;5.334;2023-06-22T12:41:39;21.20;99.90
25024;DHT22;13033;50.936;5.334;2023-06-22T12:44:05;21.00;99.90
25024;DHT22;13033;50.936;5.334;2023-06-22T12:46:31;20.90;99.90
25024;DHT22;13033;50.936;5.334;2023-06-22T12:49:03;20.90;99.90
25024;DHT22;13033;50.936;5.334;2023-06-22T12:51:30;20.90;99.90
25024;DHT22;13033;50.936;5.334;2023-06-22T12:53:56;21.10;99.90
25024;DHT22;13033;50.936;5.334;2023-06-22T12:56:22;20.90;99.90
25024;DHT22;13033;50.936;5.334;2023-06-22T12:58:48;20.80;99.90
25024;DHT22;13033;50.936;5.334;2023-06-22T13:01:13;20.70;99.90
25024;DHT22;13033;50.936;5.334;2023-06-22T13:03:40;20.70;99.90
25024;DHT22;13033;50.936;5.334;2023-06-22T13:06:05;20.60;99.90
25024;DHT22;13033;50.936;5.334;2023-06-22T13:08:31;20.50;99.90
25024;DHT22;13033;50.936;5.334;2023-06-22T13:10:57;20.50;99.90
25024;DHT22;13033;50.936;5.334;2023-06-22T13:13:25;20.50;99.90
25024;DHT22;13033;50.936;5.334;2023-06-22T13:15:53;20.50;99.90
25024;DHT22;13033;50.936;5.334;2023-06-22T13:18:19;20.50;99.90
25024;DHT22;13033;50.936;5.334;2023-06-22T13:20:45;20.30;99.90
25024;DHT22;13033;50.936;5.334;2023-06-22T13:23:11;20.30;99.90
25024;DHT22;13033;50.936;5.334;2023-06-22T13:25:36;20.40;99.90
25024;DHT22;13033;50.936;5.334;2023-06-22T13:28:02;20.30;99.90
25024;DHT22;13033;50.936;5.334;2023-06-22T13:30:28;20.20;99.90
25024;DHT22;13033;50.936;5.334;2023-06-22T13:32:54;20.10;99.90
25024;DHT22;13033;50.936;5.334;2023-06-22T13:35:19;20.10;99.90
25024;DHT22;13033;50.936;5.334;2023-06-22T13:37:45;20.10;99.90
25024;DHT22;13033;50.936;5.334;2023-06-22T13:40:11;20.10;99.90
25024;DHT22;13033;50.936;5.334;2023-06-22T13:42:36;19.90;99.90
25024;DHT22;13033;50.936;5.334;2023-06-22T13:45:03;19.80;99.90
25024;DHT22;13033;50.936;5.334;2023-06-22T13:47:29;19.70;99.90
25024;DHT22;13033;50.936;5.334;2023-06-22T13:49:55;19.70;99.90
25024;DHT22;13033;50.936;5.334;2023-06-22T13:52:20;19.70;99.90
25024;DHT22;13033;50.936;5.334;2023-06-22T13:54:46;19.60;99.90
25024;DHT22;13033;50.936;5.334;2023-06-22T13:57:12;19.70;99.90
25024;DHT22;13033;50.936;5.334;2023-06-22T13:59:37;19.70;99.90
25024;DHT22;13033;50.936;5.334;2023-06-22T14:02:03;19.80;99.90
25024;DHT22;13033;50.936;5.334;2023-06-22T14:04:29;19.70;99.90
25024;DHT22;13033;50.936;5.334;2023-06-22T14:06:55;19.80;99.90
25024;DHT22;13033;50.936;5.334;2023-06-22T14:09:22;19.80;99.90
25024;DHT22;13033;50.936;5.334;2023-06-22T14:11:48;19.80;99.90
25024;DHT22;13033;50.936;5.334;2023-06-22T14:14:13;19.70;99.90
25024;DHT22;13033;50.936;5.334;2023-06-22T14:16:39;19.60;99.90
25024;DHT22;13033;50.936;5.334;2023-06-22T14:19:07;19.40;99.90
25024;DHT22;13033;50.936;5.334;2023-06-22T14:21:33;19.40;99.90
25024;DHT22;13033;50.936;5.334;2023-06-22T14:23:58;19.30;99.90
25024;DHT22;13033;50.936;5.334;2023-06-22T14:26:24;19.20;99.90
25024;DHT22;13033;50.936;5.334;2023-06-22T14:28:50;19.20;99.90
25024;DHT22;13033;50.936;5.334;2023-06-22T14:31:17;19.20;99.90
25024;DHT22;13033;50.936;5.334;2023-06-22T14:33:47;19.20;99.90
25024;DHT22;13033;50.936;5.334;2023-06-22T14:36:14;19.10;99.90
25024;DHT22;13033;50.936;5.334;2023-06-22T14:38:40;19.10;99.90
25024;DHT22;13033;50.936;5.334;2023-06-22T14:41:05;19.10;99.90
25024;DHT22;13033;50.936;5.334;2023-06-22T14:43:31;19.00;99.90
25024;DHT22;13033;50.936;5.334;2023-06-22T14:45:57;19.00;99.90
25024;DHT22;13033;50.936;5.334;2023-06-22T14:48:22;18.90;99.90
25024;DHT22;13033;50.936;5.334;2023-06-22T14:50:48;18.90;99.90
25024;DHT22;13033;50.936;5.334;2023-06-22T14:53:14;18.90;99.90
25024;DHT22;13033;50.936;5.334;2023-06-22T14:55:40;18.90;99.90
25024;DHT22;13033;50.936;5.334;2023-06-22T14:58:06;19.00;99.90
25024;DHT22;13033;50.936;5.334;2023-06-22T15:00:32;18.90;99.90
25024;DHT22;13033;50.936;5.334;2023-06-22T15:02:58;18.90;99.90
25024;DHT22;13033;50.936;5.334;2023-06-22T15:05:25;18.80;99.90
25024;DHT22;13033;50.936;5.334;2023-06-22T15:07:50;18.90;99.90
25024;DHT22;13033;50.936;5.334;2023-06-22T15:10:16;18.90;99.90
25024;DHT22;13033;50.936;5.334;2023-06-22T15:12:42;18.80;99.90
25024;DHT22;13033;50.936;5.334;2023-06-22T15:15:08;18.90;99.90
25024;DHT22;13033;50.936;5.334;2023-06-22T15:17:34;18.90;99.90
25024;DHT22;13033;50.936;5.334;2023-06-22T15:19:59;18.80;99.90
25024;DHT22;13033;50.936;5.334;2023-06-22T15:22:25;18.70;99.90
25024;DHT22;13033;50.936;5.334;2023-06-22T15:24:51;18.70;99.90
25024;DHT22;13033;50.936;5.334;2023-06-22T15:27:19;18.60;99.90
25024;DHT22;13033;50.936;5.334;2023-06-22T15:29:45;18.70;99.90
25024;DHT22;13033;50.936;5.334;2023-06-22T15:32:11;18.70;99.90
25024;DHT22;13033;50.936;5.334;2023-06-22T15:34:38;18.80;99.90
25024;DHT22;13033;50.936;5.334;2023-06-22T15:37:03;18.80;99.90